Time;durP1;ratioP1;P1;durP2;ratioP2;P2;SDS_P1;SDS_P2;PMS_P1;PMS_P2;Temp;Humidity;BMP_temperature;BMP_pressure;BME280_temperature;BME280_humidity;BME280_pressure;Samples;Min_cycle;Max_cycle;Signal;HPM_P1;HPM_P2
2023/03/08 00:00:48;;;;;;;3.93;1.97;;;3.90;99.90;;;;;;5042823;28;20737;-68
2023/03/08 00:03:37;;;;;;;3.77;1.70;;;3.90;99.90;;;;;;5064221;28;20216;-67
2023/03/08 00:06:27;;;;;;;3.97;2.10;;;3.80;99.90;;;;;;5059323;28;20229;-66
2023/03/08 00:09:16;;;;;;;4.07;1.90;;;3.90;99.90;;;;;;5061641;28;20224;-67
2023/03/08 00:12:07;;;;;;;3.10;1.93;;;3.70;99.90;;;;;;5058261;28;20224;-65
2023/03/08 00:14:55;;;;;;;3.67;2.40;;;3.80;99.90;;;;;;5052180;28;20235;-65
2023/03/08 00:17:44;;;;;;;3.07;1.93;;;3.70;99.90;;;;;;5045350;28;20437;-65
2023/03/08 00:20:33;;;;;;;4.93;2.37;;;3.70;99.90;;;;;;5066388;28;20231;-65
2023/03/08 00:23:22;;;;;;;5.03;2.70;;;3.70;99.90;;;;;;5039281;28;20229;-66
2023/03/08 00:26:12;;;;;;;3.87;2.50;;;3.80;99.90;;;;;;5056085;28;20232;-66
2023/03/08 00:29:02;;;;;;;4.47;2.73;;;3.70;99.90;;;;;;5049720;28;20236;-64
2023/03/08 00:31:51;;;;;;;7.57;3.63;;;3.70;99.90;;;;;;5049700;28;20253;-65
2023/03/08 00:34:45;;;;;;;6.00;3.13;;;3.80;99.90;;;;;;5055383;28;20268;-65
2023/03/08 00:37:34;;;;;;;4.00;3.23;;;3.70;99.90;;;;;;5054421;28;20224;-66
2023/03/08 00:40:23;;;;;;;7.73;3.27;;;3.80;99.90;;;;;;5060500;28;20235;-65
2023/03/08 00:43:12;;;;;;;4.63;3.23;;;3.90;99.90;;;;;;5047148;28;20220;-66
2023/03/08 00:46:02;;;;;;;4.87;3.53;;;3.80;99.90;;;;;;5053659;28;20713;-65
2023/03/08 00:48:51;;;;;;;5.27;3.47;;;3.80;99.90;;;;;;5069999;28;20212;-65
2023/03/08 00:51:39;;;;;;;4.40;3.27;;;3.70;99.90;;;;;;5062714;28;20220;-65
2023/03/08 00:54:30;;;;;;;7.47;3.63;;;3.80;99.90;;;;;;5060097;28;20220;-67
2023/03/08 00:57:19;;;;;;;6.97;3.33;;;3.70;99.90;;;;;;5061110;28;20224;-65
2023/03/08 01:00:11;;;;;;;5.27;3.40;;;3.70;99.90;;;;;;5067137;28;20224;-64
2023/03/08 01:03:03;;;;;;;4.77;3.50;;;3.80;99.90;;;;;;5058324;28;20232;-64
2023/03/08 01:05:53;;;;;;;4.57;3.03;;;3.70;99.90;;;;;;5053835;28;20224;-64
2023/03/08 01:08:43;;;;;;;6.43;3.40;;;3.60;99.90;;;;;;5050711;28;20228;-65
2023/03/08 01:11:34;;;;;;;5.03;3.10;;;3.70;99.90;;;;;;5058589;28;20694;-63
2023/03/08 01:14:22;;;;;;;4.00;2.90;;;3.60;99.90;;;;;;5055599;28;20565;-65
2023/03/08 01:17:11;;;;;;;3.77;2.60;;;3.60;99.90;;;;;;5054122;28;21058;-65
2023/03/08 01:20:03;;;;;;;3.13;2.13;;;3.50;99.90;;;;;;5047900;28;20239;-64
2023/03/08 01:22:51;;;;;;;4.43;3.03;;;3.30;99.90;;;;;;5048406;28;21160;-65
2023/03/08 01:25:40;;;;;;;6.00;2.17;;;3.40;99.90;;;;;;5045134;28;20219;-63
2023/03/08 01:28:29;;;;;;;3.73;2.30;;;3.40;99.90;;;;;;5060835;28;20219;-65
2023/03/08 01:31:20;;;;;;;5.57;2.60;;;3.40;99.90;;;;;;5059300;28;20227;-64
2023/03/08 01:34:10;;;;;;;3.83;2.50;;;3.40;99.90;;;;;;5041646;28;20330;-64
2023/03/08 01:37:00;;;;;;;3.80;2.43;;;3.40;99.90;;;;;;5046049;28;20219;-64
2023/03/08 01:39:49;;;;;;;5.07;2.53;;;3.40;99.90;;;;;;5047582;28;20591;-65
2023/03/08 01:42:39;;;;;;;4.00;2.77;;;3.40;99.90;;;;;;5058797;28;20235;-67
2023/03/08 01:46:05;;;;;;;6.50;3.03;;;3.40;99.90;;;;;;5042980;28;20722;-66
2023/03/08 01:48:58;;;;;;;4.63;2.80;;;3.30;99.90;;;;;;5042083;28;20228;-65
2023/03/08 01:51:53;;;;;;;6.80;3.60;;;3.20;99.90;;;;;;5058998;28;20231;-63
2023/03/08 01:54:46;;;;;;;8.33;3.60;;;3.20;99.90;;;;;;5037633;28;20331;-63
2023/03/08 01:57:39;;;;;;;8.27;3.47;;;3.10;99.90;;;;;;5061382;28;20750;-64
2023/03/08 02:00:27;;;;;;;6.80;3.10;;;3.20;99.90;;;;;;5059046;28;20279;-65
2023/03/08 02:03:16;;;;;;;6.10;3.00;;;3.10;99.90;;;;;;5056328;28;20672;-62
2023/03/08 02:06:06;;;;;;;5.20;2.40;;;3.30;99.90;;;;;;5048313;28;20536;-63
2023/03/08 02:08:55;;;;;;;6.97;2.37;;;3.10;99.90;;;;;;5054124;28;20247;-64
2023/03/08 02:11:47;;;;;;;4.07;2.17;;;3.00;99.90;;;;;;5053654;28;20239;-65
2023/03/08 02:14:36;;;;;;;4.73;2.07;;;3.00;99.90;;;;;;5042063;28;20212;-64
2023/03/08 02:17:25;;;;;;;2.93;1.93;;;3.00;99.90;;;;;;5047910;28;20235;-64
2023/03/08 02:20:17;;;;;;;5.77;2.10;;;3.10;99.90;;;;;;5053220;28;20235;-65
2023/03/08 02:23:14;;;;;;;5.90;2.10;;;3.10;99.90;;;;;;5047396;28;20511;-64
2023/03/08 02:26:04;;;;;;;6.27;2.10;;;3.00;99.90;;;;;;5063903;28;20213;-65
2023/03/08 02:28:53;;;;;;;5.43;2.67;;;3.00;99.90;;;;;;5063020;28;20259;-64
2023/03/08 02:31:42;;;;;;;4.73;2.20;;;3.10;99.90;;;;;;5072386;28;20212;-65
2023/03/08 02:34:31;;;;;;;6.83;1.97;;;3.10;99.90;;;;;;5064496;28;20224;-65
2023/03/08 02:37:20;;;;;;;4.53;2.20;;;3.10;99.90;;;;;;5059270;28;20220;-64
2023/03/08 02:40:12;;;;;;;3.43;1.93;;;3.10;99.90;;;;;;5048452;28;20220;-65
2023/03/08 02:43:01;;;;;;;5.27;2.10;;;3.20;99.90;;;;;;5045851;28;20236;-64
2023/03/08 02:45:50;;;;;;;2.37;1.80;;;3.20;99.90;;;;;;5061262;28;20596;-65
2023/03/08 02:48:39;;;;;;;5.53;2.40;;;3.10;99.90;;;;;;5046049;28;20609;-65
2023/03/08 02:51:27;;;;;;;4.50;1.87;;;3.20;99.90;;;;;;5047938;28;20232;-65
2023/03/08 02:54:18;;;;;;;4.33;1.63;;;3.30;99.90;;;;;;5062543;28;20236;-64
2023/03/08 02:57:08;;;;;;;5.93;1.80;;;3.30;99.90;;;;;;5048262;28;20262;-66
2023/03/08 02:59:58;;;;;;;4.67;1.40;;;3.30;99.90;;;;;;5052312;28;20228;-63
2023/03/08 03:02:48;;;;;;;6.60;1.67;;;3.30;99.90;;;;;;5065691;28;20295;-66
2023/03/08 03:05:41;;;;;;;7.97;1.80;;;3.30;99.90;;;;;;5051638;28;20224;-65
2023/03/08 03:08:33;;;;;;;5.53;1.70;;;3.20;99.90;;;;;;5065729;28;20212;-64
2023/03/08 03:11:23;;;;;;;2.97;1.70;;;3.20;99.90;;;;;;5052729;28;20481;-63
2023/03/08 03:14:14;;;;;;;6.40;1.43;;;3.30;99.90;;;;;;5058880;28;20772;-65
2023/03/08 03:17:04;;;;;;;8.20;1.60;;;3.30;99.90;;;;;;5053695;28;20302;-66
2023/03/08 03:19:53;;;;;;;2.53;1.40;;;3.10;99.90;;;;;;5063715;28;20420;-66
2023/03/08 03:22:41;;;;;;;4.57;1.90;;;3.20;99.90;;;;;;5045126;28;20236;-64
2023/03/08 03:25:30;;;;;;;6.40;1.90;;;3.40;99.90;;;;;;5041986;28;20235;-66
2023/03/08 03:28:19;;;;;;;3.70;1.90;;;3.30;99.90;;;;;;5051464;28;20270;-66
2023/03/08 03:31:12;;;;;;;4.27;2.00;;;3.30;99.90;;;;;;5037253;28;20361;-66
2023/03/08 03:34:01;;;;;;;4.40;1.87;;;3.40;99.90;;;;;;5065833;28;20245;-65
2023/03/08 03:36:50;;;;;;;3.87;2.03;;;3.30;99.90;;;;;;5058381;28;20224;-66
2023/03/08 03:39:39;;;;;;;6.37;2.57;;;3.40;99.90;;;;;;5060824;28;20228;-66
2023/03/08 03:42:31;;;;;;;4.70;2.87;;;3.30;99.90;;;;;;5067027;28;20472;-66
2023/03/08 03:45:27;;;;;;;6.70;3.10;;;3.30;99.90;;;;;;5065748;28;20274;-64
2023/03/08 03:48:17;;;;;;;3.80;2.90;;;3.30;99.90;;;;;;5056139;28;20219;-65
2023/03/08 03:51:07;;;;;;;5.53;2.77;;;3.30;99.90;;;;;;5053244;28;20212;-67
2023/03/08 03:53:58;;;;;;;6.17;3.43;;;3.30;99.90;;;;;;5053898;28;20224;-66
2023/03/08 03:56:48;;;;;;;6.73;3.70;;;3.30;99.90;;;;;;5051518;28;20227;-66
2023/03/08 03:59:41;;;;;;;8.33;4.33;;;3.30;99.90;;;;;;5060458;28;20224;-66
2023/03/08 04:02:29;;;;;;;6.97;4.37;;;3.20;99.90;;;;;;5049139;28;20236;-65
2023/03/08 04:05:46;;;;;;;10.10;5.10;;;3.20;99.90;;;;;;5047069;28;20721;-66
2023/03/08 04:08:40;;;;;;;9.60;5.23;;;3.20;99.90;;;;;;5072371;28;20215;-65
2023/03/08 04:11:34;;;;;;;9.40;5.43;;;3.10;99.90;;;;;;5055746;28;20315;-64
2023/03/08 04:14:24;;;;;;;12.73;6.20;;;3.20;99.90;;;;;;5047704;28;20631;-64
2023/03/08 04:17:14;;;;;;;10.50;6.03;;;3.30;99.90;;;;;;5060929;28;20273;-64
2023/03/08 04:20:08;;;;;;;8.80;5.87;;;3.40;99.90;;;;;;5058565;28;20658;-65
2023/03/08 04:23:04;;;;;;;10.33;6.23;;;3.40;99.90;;;;;;5063429;28;20235;-64
2023/03/08 04:25:58;;;;;;;8.03;6.37;;;3.40;99.90;;;;;;5050941;28;20254;-64
2023/03/08 04:28:48;;;;;;;11.30;6.93;;;3.30;99.90;;;;;;5057948;28;20220;-66
2023/03/08 04:31:38;;;;;;;9.57;6.63;;;3.30;99.90;;;;;;5057438;28;20243;-66
2023/03/08 04:34:31;;;;;;;10.83;7.03;;;3.30;99.90;;;;;;5040060;28;20455;-67
2023/03/08 04:37:20;;;;;;;14.17;7.70;;;3.40;99.90;;;;;;5046800;28;20519;-66
2023/03/08 04:40:15;;;;;;;10.07;7.73;;;3.40;99.90;;;;;;5061104;28;20235;-67
2023/03/08 04:43:13;;;;;;;12.27;8.27;;;3.40;99.90;;;;;;5046087;28;20225;-67
2023/03/08 04:46:04;;;;;;;10.90;8.03;;;3.30;99.90;;;;;;5052357;28;20250;-67
2023/03/08 04:48:54;;;;;;;13.07;9.17;;;3.30;99.90;;;;;;5048007;28;20225;-67
2023/03/08 04:51:46;;;;;;;11.27;8.60;;;3.20;99.90;;;;;;5051893;28;20243;-67
2023/03/08 04:54:34;;;;;;;15.53;9.30;;;3.30;99.90;;;;;;5038387;28;20220;-67
2023/03/08 04:57:30;;;;;;;12.30;9.47;;;3.20;99.90;;;;;;5060805;28;20309;-68
2023/03/08 05:00:22;;;;;;;14.10;9.50;;;3.20;99.90;;;;;;5044223;28;20223;-68
2023/03/08 05:03:12;;;;;;;16.63;10.60;;;3.10;99.90;;;;;;5053873;28;20227;-68
2023/03/08 05:06:01;;;;;;;15.93;9.20;;;3.20;99.90;;;;;;5046639;28;20219;-66
2023/03/08 05:08:50;;;;;;;14.70;9.70;;;3.10;99.90;;;;;;5050487;28;20276;-66
2023/03/08 05:11:39;;;;;;;14.63;9.70;;;3.20;99.90;;;;;;5061958;28;20247;-66
2023/03/08 05:14:30;;;;;;;15.33;9.87;;;3.30;99.90;;;;;;5044520;28;20434;-65
2023/03/08 05:17:19;;;;;;;15.47;10.57;;;3.20;99.90;;;;;;5048339;28;20308;-66
2023/03/08 05:20:11;;;;;;;14.20;10.10;;;3.20;99.90;;;;;;5061718;28;20231;-65
2023/03/08 05:23:02;;;;;;;15.63;10.53;;;3.30;99.90;;;;;;5061899;28;20256;-67
2023/03/08 05:25:59;;;;;;;12.27;10.17;;;3.40;99.90;;;;;;5048623;28;20297;-67
2023/03/08 05:28:48;;;;;;;14.60;10.00;;;3.30;99.90;;;;;;5062386;28;20239;-66
2023/03/08 05:31:42;;;;;;;14.47;10.43;;;3.20;99.90;;;;;;5048567;28;20595;-66
2023/03/08 05:34:31;;;;;;;14.60;9.80;;;3.20;99.90;;;;;;5059654;28;20228;-66
2023/03/08 05:37:24;;;;;;;14.87;10.57;;;3.10;99.90;;;;;;5034904;28;20730;-68
2023/03/08 05:40:16;;;;;;;14.03;10.00;;;3.20;99.90;;;;;;5041042;28;20239;-66
2023/03/08 05:43:06;;;;;;;17.87;10.27;;;3.20;99.90;;;;;;5041650;28;20273;-67
2023/03/08 05:45:57;;;;;;;13.63;9.50;;;3.20;99.90;;;;;;5051939;28;20231;-65
2023/03/08 05:48:50;;;;;;;16.20;10.23;;;3.20;99.90;;;;;;5060893;28;20227;-66
2023/03/08 05:51:39;;;;;;;13.87;9.97;;;3.30;99.90;;;;;;5060170;28;20228;-63
2023/03/08 05:54:28;;;;;;;12.50;10.00;;;3.20;99.90;;;;;;5061620;28;20223;-66
2023/03/08 05:57:21;;;;;;;13.63;9.93;;;3.20;99.90;;;;;;5042972;28;21490;-66
2023/03/08 06:00:12;;;;;;;13.87;9.47;;;3.20;99.90;;;;;;5044272;28;20224;-65
2023/03/08 06:03:08;;;;;;;14.07;9.97;;;3.00;99.90;;;;;;5024907;28;20234;-65
2023/03/08 06:06:02;;;;;;;15.63;9.93;;;3.00;99.90;;;;;;5048260;28;20325;-65
2023/03/08 06:08:52;;;;;;;16.03;10.20;;;3.00;99.90;;;;;;5060248;28;20231;-66
2023/03/08 06:11:41;;;;;;;16.73;10.47;;;3.10;99.90;;;;;;5055367;28;20910;-67
2023/03/08 06:14:30;;;;;;;14.23;9.97;;;3.00;99.90;;;;;;5047749;28;20354;-64
2023/03/08 06:17:19;;;;;;;16.57;10.17;;;3.00;99.90;;;;;;5061405;28;20223;-65
2023/03/08 06:20:12;;;;;;;16.53;10.37;;;3.10;99.90;;;;;;5049187;28;20244;-67
2023/03/08 06:23:06;;;;;;;12.87;9.90;;;3.10;99.90;;;;;;5059285;28;20224;-65
2023/03/08 06:25:55;;;;;;;12.70;10.20;;;3.10;99.90;;;;;;5059376;28;20307;-64
2023/03/08 06:28:43;;;;;;;14.60;9.30;;;3.00;99.90;;;;;;5043139;28;20313;-65
2023/03/08 06:31:33;;;;;;;12.63;9.03;;;3.00;99.90;;;;;;5049909;28;20303;-68
2023/03/08 06:34:24;;;;;;;12.13;8.40;;;3.10;99.90;;;;;;5044144;28;20302;-67
2023/03/08 06:37:15;;;;;;;11.43;8.53;;;3.20;99.90;;;;;;5041712;28;20581;-67
2023/03/08 06:40:08;;;;;;;12.40;8.30;;;3.30;99.90;;;;;;5056750;28;20252;-67
2023/03/08 06:42:59;;;;;;;14.37;8.10;;;3.40;99.90;;;;;;5043739;28;20227;-68
2023/03/08 06:45:48;;;;;;;13.57;8.60;;;3.20;99.90;;;;;;5057494;28;20687;-67
2023/03/08 06:48:38;;;;;;;10.70;7.70;;;3.20;99.90;;;;;;5066313;28;20224;-67
2023/03/08 06:51:27;;;;;;;12.77;8.03;;;3.30;99.90;;;;;;5046992;28;20225;-68
2023/03/08 06:54:17;;;;;;;15.83;9.17;;;3.20;99.90;;;;;;5043107;28;20224;-65
2023/03/08 06:57:08;;;;;;;11.93;8.30;;;3.30;99.90;;;;;;5058386;28;20238;-69
2023/03/08 06:59:57;;;;;;;11.93;8.00;;;3.30;99.90;;;;;;5064018;28;20224;-66
2023/03/08 07:02:47;;;;;;;11.80;8.27;;;3.40;99.90;;;;;;5054277;28;20247;-66
2023/03/08 07:05:36;;;;;;;13.73;8.80;;;3.30;99.90;;;;;;5060297;28;20219;-67
2023/03/08 07:08:24;;;;;;;18.83;12.20;;;3.30;99.90;;;;;;5056190;28;20237;-66
2023/03/08 07:11:13;;;;;;;16.10;9.20;;;3.20;99.90;;;;;;5050569;28;20279;-66
2023/03/08 07:14:06;;;;;;;14.30;8.00;;;3.30;99.90;;;;;;5060686;28;20251;-66
2023/03/08 07:16:55;;;;;;;15.00;7.93;;;3.30;99.90;;;;;;5031351;28;20233;-66
2023/03/08 07:19:44;;;;;;;15.27;7.70;;;3.20;99.90;;;;;;5054500;28;20228;-65
2023/03/08 07:22:33;;;;;;;16.97;8.07;;;3.20;99.90;;;;;;5053841;28;20720;-66
2023/03/08 07:25:22;;;;;;;15.33;7.70;;;3.40;99.90;;;;;;5043149;28;20227;-66
2023/03/08 07:28:11;;;;;;;12.53;7.30;;;3.50;99.90;;;;;;5061679;28;20236;-66
2023/03/08 07:31:02;;;;;;;13.70;7.43;;;3.50;99.90;;;;;;5032442;28;20219;-65
2023/03/08 07:33:51;;;;;;;12.40;7.60;;;3.60;99.90;;;;;;5056182;28;20618;-64
2023/03/08 07:36:40;;;;;;;11.33;7.27;;;3.60;99.90;;;;;;5057654;28;20908;-66
2023/03/08 07:39:29;;;;;;;11.23;7.17;;;3.60;99.90;;;;;;5063028;28;20220;-64
2023/03/08 07:42:18;;;;;;;10.80;6.80;;;3.60;99.90;;;;;;5067201;28;20508;-66
2023/03/08 07:45:13;;;;;;;14.30;7.23;;;3.60;99.90;;;;;;5048466;28;20232;-65
2023/03/08 07:48:03;;;;;;;12.13;7.47;;;3.60;99.90;;;;;;5054162;28;20238;-66
2023/03/08 07:50:52;;;;;;;13.40;7.93;;;3.60;99.90;;;;;;5046679;28;20224;-65
2023/03/08 07:53:41;;;;;;;13.60;7.10;;;3.90;99.90;;;;;;5047236;28;20228;-66
2023/03/08 07:56:29;;;;;;;10.00;7.33;;;3.90;99.90;;;;;;5059390;28;20242;-67
2023/03/08 07:59:18;;;;;;;13.40;7.10;;;4.10;99.90;;;;;;5051828;28;20236;-67
2023/03/08 08:02:11;;;;;;;14.73;7.33;;;4.20;99.90;;;;;;5058523;28;20222;-65
2023/03/08 08:05:02;;;;;;;10.37;6.87;;;4.40;99.90;;;;;;5055498;28;20260;-65
2023/03/08 08:07:52;;;;;;;14.50;6.80;;;4.40;99.90;;;;;;5055881;28;20232;-65
2023/03/08 08:10:41;;;;;;;18.63;7.57;;;4.40;99.90;;;;;;5062462;28;20717;-65
2023/03/08 08:13:30;;;;;;;10.20;6.47;;;4.70;99.90;;;;;;5042071;28;20216;-65
2023/03/08 08:16:19;;;;;;;15.77;10.17;;;5.10;99.90;;;;;;5057788;28;20610;-65
2023/03/08 08:19:11;;;;;;;11.27;7.17;;;5.00;99.90;;;;;;5048373;28;20238;-65
2023/03/08 08:22:01;;;;;;;14.93;7.10;;;5.30;99.90;;;;;;5057905;28;20787;-66
2023/03/08 08:24:50;;;;;;;10.80;6.70;;;5.90;99.90;;;;;;5067799;28;20250;-65
2023/03/08 08:27:38;;;;;;;8.37;6.20;;;5.60;99.90;;;;;;5061655;28;20798;-66
2023/03/08 08:30:27;;;;;;;9.57;6.40;;;6.70;99.90;;;;;;5062616;28;20227;-65
2023/03/08 08:33:16;;;;;;;10.43;6.53;;;6.40;99.90;;;;;;5063639;28;20251;-66
2023/03/08 08:36:06;;;;;;;17.40;9.47;;;6.50;99.90;;;;;;5063029;28;20228;-65
2023/03/08 08:38:57;;;;;;;9.40;6.33;;;6.20;99.90;;;;;;5060914;28;20251;-65
2023/03/08 08:41:46;;;;;;;11.33;8.00;;;6.00;99.90;;;;;;5059376;28;20719;-65
2023/03/08 08:44:35;;;;;;;8.67;5.70;;;5.70;99.90;;;;;;5059349;28;20331;-67
2023/03/08 08:47:23;;;;;;;12.63;6.23;;;5.60;99.90;;;;;;5064197;28;20246;-66
2023/03/08 08:50:12;;;;;;;12.70;7.07;;;5.70;99.90;;;;;;5056771;28;20711;-66
2023/03/08 08:53:02;;;;;;;11.90;6.83;;;5.50;99.90;;;;;;5059381;28;20702;-65
2023/03/08 08:55:52;;;;;;;9.67;6.07;;;5.80;99.90;;;;;;5061741;28;20320;-65
2023/03/08 08:58:41;;;;;;;8.13;5.83;;;5.80;99.90;;;;;;5064698;28;20246;-65
2023/03/08 09:01:31;;;;;;;11.17;5.77;;;5.50;99.90;;;;;;5037354;28;20231;-65
2023/03/08 09:04:20;;;;;;;10.60;5.97;;;5.20;99.90;;;;;;5047871;28;20373;-65
2023/03/08 09:07:12;;;;;;;11.87;5.97;;;6.20;99.90;;;;;;5044868;28;20819;-64
2023/03/08 09:10:01;;;;;;;10.17;6.07;;;6.00;99.90;;;;;;5058996;28;20212;-65
2023/03/08 09:12:51;;;;;;;8.80;5.53;;;6.00;99.90;;;;;;5061964;28;20266;-67
2023/03/08 09:15:40;;;;;;;11.07;5.40;;;5.70;99.90;;;;;;5060270;28;20360;-66
2023/03/08 09:18:29;;;;;;;8.80;5.30;;;5.50;99.90;;;;;;5043378;28;20600;-65
2023/03/08 09:21:18;;;;;;;15.20;5.33;;;5.40;99.90;;;;;;5059900;28;20224;-66
2023/03/08 09:24:09;;;;;;;34.80;6.87;;;5.60;99.90;;;;;;5055892;28;20377;-62
2023/03/08 09:26:58;;;;;;;19.23;5.83;;;5.50;99.90;;;;;;5042002;28;20722;-66
2023/03/08 09:29:48;;;;;;;10.77;5.60;;;5.40;99.90;;;;;;5063575;28;20224;-66
2023/03/08 09:32:37;;;;;;;11.27;6.93;;;5.60;99.90;;;;;;5049936;28;20220;-67
2023/03/08 09:35:26;;;;;;;11.57;6.60;;;5.30;99.90;;;;;;5058763;28;20220;-66
2023/03/08 09:38:15;;;;;;;10.63;5.90;;;5.20;99.90;;;;;;5048919;28;20225;-65
2023/03/08 09:41:21;;;;;;;12.40;6.50;;;5.40;99.90;;;;;;5036956;28;20229;-65
2023/03/08 09:44:19;;;;;;;13.60;6.53;;;5.50;99.90;;;;;;5045163;28;20227;-66
2023/03/08 09:47:16;;;;;;;11.50;7.20;;;5.30;99.90;;;;;;5059728;28;20377;-66
2023/03/08 09:50:17;;;;;;;12.67;5.80;;;5.20;99.90;;;;;;5061183;28;20259;-68
2023/03/08 09:53:16;;;;;;;10.47;5.80;;;5.10;99.90;;;;;;5034414;28;20237;-65
2023/03/08 09:56:13;;;;;;;10.07;4.90;;;5.10;99.90;;;;;;5036867;28;20317;-67
2023/03/08 09:59:05;;;;;;;10.57;5.20;;;4.90;99.90;;;;;;5047743;28;20562;-66
2023/03/08 10:02:02;;;;;;;11.90;5.53;;;5.00;99.90;;;;;;5039905;28;20255;-66
2023/03/08 10:05:00;;;;;;;8.90;4.80;;;5.00;99.90;;;;;;5059282;28;20251;-66
2023/03/08 10:08:06;;;;;;;10.47;4.47;;;5.10;99.90;;;;;;5060170;28;20239;-66
2023/03/08 10:11:00;;;;;;;8.33;4.60;;;5.20;99.90;;;;;;5063048;28;20722;-65
2023/03/08 10:13:51;;;;;;;8.50;5.00;;;5.10;99.90;;;;;;5060316;28;20344;-64
2023/03/08 10:16:45;;;;;;;10.07;4.70;;;5.30;99.90;;;;;;5054154;28;20225;-65
2023/03/08 10:19:40;;;;;;;12.40;4.43;;;5.10;99.90;;;;;;5056900;28;20261;-65
2023/03/08 10:22:33;;;;;;;12.67;5.03;;;5.00;99.90;;;;;;5046124;28;20227;-65
2023/03/08 10:25:25;;;;;;;11.23;5.30;;;4.90;99.90;;;;;;5046786;28;20722;-65
2023/03/08 10:28:19;;;;;;;9.43;4.87;;;4.80;99.90;;;;;;5046682;28;20898;-65
2023/03/08 10:31:20;;;;;;;8.37;4.63;;;4.80;99.90;;;;;;5038184;28;20598;-65
2023/03/08 10:34:12;;;;;;;11.37;5.13;;;4.70;99.90;;;;;;5058395;28;20227;-66
2023/03/08 10:37:05;;;;;;;10.27;5.43;;;4.70;99.90;;;;;;5058540;28;20224;-63
2023/03/08 10:39:58;;;;;;;11.63;5.33;;;4.80;99.90;;;;;;5050823;28;20216;-64
2023/03/08 10:42:52;;;;;;;9.47;5.80;;;4.90;99.90;;;;;;5064270;28;20223;-65
2023/03/08 10:45:40;;;;;;;8.27;4.30;;;5.20;99.90;;;;;;5061728;28;20240;-64
2023/03/08 10:48:29;;;;;;;9.73;5.33;;;5.20;99.90;;;;;;5067211;28;20228;-64
2023/03/08 10:51:20;;;;;;;11.00;5.00;;;5.40;99.90;;;;;;5054328;28;20231;-64
2023/03/08 10:54:15;;;;;;;8.03;4.60;;;5.60;99.90;;;;;;5054014;28;20228;-65
2023/03/08 10:57:05;;;;;;;8.93;4.90;;;5.50;99.90;;;;;;5062689;28;20224;-64
2023/03/08 10:59:55;;;;;;;8.70;4.20;;;5.30;99.90;;;;;;5062056;28;20225;-65
2023/03/08 11:02:45;;;;;;;8.57;4.07;;;5.40;99.90;;;;;;5051872;28;20270;-64
2023/03/08 11:05:33;;;;;;;8.00;4.60;;;5.50;99.90;;;;;;5062093;28;20229;-65
2023/03/08 11:08:24;;;;;;;10.37;3.60;;;5.60;99.90;;;;;;5048255;28;21043;-65
2023/03/08 11:11:14;;;;;;;5.37;3.63;;;5.80;99.90;;;;;;5048510;28;20762;-66
2023/03/08 11:14:10;;;;;;;9.00;3.90;;;6.00;99.90;;;;;;5059937;28;20225;-65
2023/03/08 11:17:17;;;;;;;7.57;3.83;;;5.90;99.90;;;;;;5044615;28;20228;-66
2023/03/08 11:20:16;;;;;;;8.60;4.40;;;5.80;99.90;;;;;;5045674;28;20559;-65
2023/03/08 11:23:16;;;;;;;8.43;3.70;;;5.80;99.90;;;;;;5063494;28;20221;-65
2023/03/08 11:26:15;;;;;;;9.53;4.40;;;5.80;99.90;;;;;;5064896;28;20224;-65
2023/03/08 11:29:24;;;;;;;6.90;4.00;;;5.80;99.90;;;;;;5055538;28;20223;-65
2023/03/08 11:32:28;;;;;;;33.10;18.63;;;5.60;99.90;;;;;;5064314;28;20244;-65
2023/03/08 11:35:24;;;;;;;11.23;5.10;;;5.60;99.90;;;;;;5061072;28;20772;-65
2023/03/08 11:38:18;;;;;;;10.57;5.00;;;5.60;99.90;;;;;;5049165;28;20382;-65
2023/03/08 11:41:18;;;;;;;12.17;5.60;;;5.40;99.90;;;;;;5063929;28;20228;-66
2023/03/08 11:44:25;;;;;;;9.07;5.80;;;5.50;99.90;;;;;;5061036;28;20242;-66
2023/03/08 11:47:47;;;;;;;8.67;4.77;;;5.60;99.90;;;;;;5059234;28;20209;-66
2023/03/08 11:50:39;;;;;;;9.80;4.87;;;5.70;99.90;;;;;;5061938;28;20305;-65
2023/03/08 11:53:40;;;;;;;14.13;6.43;;;5.60;99.90;;;;;;5045215;28;20313;-65
2023/03/08 11:56:51;;;;;;;17.83;8.60;;;5.60;99.90;;;;;;5056307;28;20254;-65
2023/03/08 11:59:45;;;;;;;11.33;4.80;;;5.60;99.90;;;;;;5043133;28;20630;-66
2023/03/08 12:02:38;;;;;;;26.87;16.10;;;5.70;99.90;;;;;;5039271;28;20228;-65
2023/03/08 12:05:29;;;;;;;7.57;5.00;;;5.80;99.90;;;;;;5040041;28;20231;-65
2023/03/08 12:08:22;;;;;;;16.10;6.80;;;5.90;99.90;;;;;;5061984;28;20219;-65
2023/03/08 12:11:18;;;;;;;8.63;4.73;;;5.90;99.90;;;;;;5042620;28;20228;-66
2023/03/08 12:14:15;;;;;;;12.63;5.90;;;5.60;99.90;;;;;;5058398;28;20220;-66
2023/03/08 12:17:15;;;;;;;10.80;6.50;;;5.50;99.90;;;;;;5045655;28;20232;-66
2023/03/08 12:20:07;;;;;;;7.47;4.80;;;5.40;99.90;;;;;;5062874;28;20220;-65
2023/03/08 12:23:01;;;;;;;7.40;4.30;;;5.30;99.90;;;;;;5063844;28;20224;-65
2023/03/08 12:25:55;;;;;;;9.50;4.60;;;5.30;99.90;;;;;;5060463;28;20279;-64
2023/03/08 12:28:48;;;;;;;8.13;4.33;;;5.50;99.90;;;;;;5057266;28;20217;-66
2023/03/08 12:31:41;;;;;;;10.73;4.47;;;5.50;99.90;;;;;;5059665;28;20228;-65
2023/03/08 12:34:38;;;;;;;7.07;4.43;;;5.40;99.90;;;;;;5030136;28;20323;-65
2023/03/08 12:37:28;;;;;;;7.37;3.77;;;5.70;99.90;;;;;;5059203;28;20354;-63
2023/03/08 12:40:30;;;;;;;11.23;4.37;;;5.80;99.90;;;;;;5055509;28;20231;-66
2023/03/08 12:43:29;;;;;;;12.20;4.23;;;6.00;99.90;;;;;;5064120;28;20216;-65
2023/03/08 12:46:18;;;;;;;10.90;4.30;;;6.10;99.90;;;;;;5060279;28;20220;-66
2023/03/08 12:49:20;;;;;;;8.83;4.30;;;6.10;99.90;;;;;;5055847;28;20226;-67
2023/03/08 12:52:29;;;;;;;7.10;3.80;;;5.90;99.90;;;;;;5060260;28;20227;-64
2023/03/08 12:55:21;;;;;;;6.43;3.93;;;6.20;99.90;;;;;;5051988;28;20329;-65
2023/03/08 12:58:17;;;;;;;7.03;4.13;;;6.30;99.90;;;;;;5065699;28;20705;-65
2023/03/08 13:01:23;;;;;;;9.13;3.90;;;6.50;99.90;;;;;;5062050;28;20232;-67
2023/03/08 13:04:27;;;;;;;7.00;3.73;;;6.40;99.90;;;;;;5050630;28;20216;-66
2023/03/08 13:07:36;;;;;;;11.70;6.43;;;6.50;99.90;;;;;;5055554;28;20224;-65
2023/03/08 13:10:29;;;;;;;6.77;3.90;;;6.40;99.90;;;;;;5061854;28;20222;-66
2023/03/08 13:13:28;;;;;;;8.10;3.60;;;6.30;99.90;;;;;;5050949;28;20276;-66
2023/03/08 13:16:32;;;;;;;6.27;3.60;;;6.40;99.90;;;;;;5048217;28;20652;-66
2023/03/08 13:19:26;;;;;;;5.67;3.57;;;6.40;99.90;;;;;;5058933;28;20246;-66
2023/03/08 13:22:23;;;;;;;15.20;7.93;;;6.20;99.90;;;;;;5063820;28;20225;-65
2023/03/08 13:25:26;;;;;;;9.37;4.50;;;6.20;99.90;;;;;;5061221;28;20232;-65
2023/03/08 13:28:17;;;;;;;6.67;3.80;;;6.20;99.90;;;;;;5057945;28;20245;-65
2023/03/08 13:31:14;;;;;;;8.33;3.83;;;6.20;99.90;;;;;;5041990;28;20220;-64
2023/03/08 13:34:24;;;;;;;8.63;4.10;;;6.20;99.90;;;;;;5055674;28;20224;-65
2023/03/08 13:37:22;;;;;;;7.77;4.27;;;6.10;99.90;;;;;;5062977;28;20230;-66
2023/03/08 13:40:19;;;;;;;11.27;4.83;;;6.10;99.90;;;;;;5048127;28;20311;-66
2023/03/08 13:43:13;;;;;;;7.93;4.50;;;6.00;99.90;;;;;;5054778;28;20385;-66
2023/03/08 13:46:05;;;;;;;8.40;5.10;;;6.20;99.90;;;;;;5055384;28;20235;-66
2023/03/08 13:48:54;;;;;;;8.50;5.20;;;6.20;99.90;;;;;;5060039;28;20590;-67
2023/03/08 13:51:44;;;;;;;10.20;4.83;;;6.20;99.90;;;;;;5057870;28;20235;-67
2023/03/08 13:54:36;;;;;;;10.63;4.70;;;6.20;99.90;;;;;;5055184;28;20387;-71
2023/03/08 13:57:27;;;;;;;8.37;5.20;;;6.20;99.90;;;;;;5052089;28;20366;-68
2023/03/08 14:00:30;;;;;;;10.83;5.80;;;6.10;99.90;;;;;;5064446;28;20695;-68
2023/03/08 14:03:20;;;;;;;12.00;6.53;;;5.90;99.90;;;;;;5041050;28;20223;-66
2023/03/08 14:06:17;;;;;;;13.50;6.07;;;6.00;99.90;;;;;;5055265;28;20312;-65
2023/03/08 14:09:07;;;;;;;6.87;4.90;;;6.00;99.90;;;;;;5047280;28;20246;-69
2023/03/08 14:11:59;;;;;;;8.37;4.73;;;6.10;99.90;;;;;;5042903;28;20223;-65
2023/03/08 14:14:54;;;;;;;5.50;4.60;;;6.10;99.90;;;;;;5060181;28;20235;-69
2023/03/08 14:17:42;;;;;;;6.40;4.37;;;6.00;99.90;;;;;;5062816;28;20592;-68
2023/03/08 14:20:32;;;;;;;6.47;4.40;;;5.80;99.90;;;;;;5071392;28;20231;-65
2023/03/08 14:23:24;;;;;;;6.13;4.63;;;5.90;99.90;;;;;;5062907;28;20565;-68
2023/03/08 14:26:31;;;;;;;7.43;4.93;;;5.80;99.90;;;;;;5066035;28;20220;-67
2023/03/08 14:29:21;;;;;;;9.37;5.20;;;6.00;99.90;;;;;;5063819;28;20216;-67
2023/03/08 14:32:30;;;;;;;7.97;4.80;;;5.90;99.90;;;;;;5048728;28;20697;-67
2023/03/08 14:35:23;;;;;;;8.30;5.50;;;5.90;99.90;;;;;;5064196;28;20230;-65
2023/03/08 14:38:21;;;;;;;9.23;5.47;;;5.90;99.90;;;;;;5061876;28;20595;-64
2023/03/08 14:41:14;;;;;;;7.70;5.17;;;6.00;99.90;;;;;;5055179;28;20235;-66
2023/03/08 14:44:04;;;;;;;14.07;7.77;;;6.10;99.90;;;;;;5070081;28;20221;-67
2023/03/08 14:46:57;;;;;;;13.43;6.60;;;6.10;99.90;;;;;;5069468;28;20225;-66
2023/03/08 14:49:56;;;;;;;12.10;5.80;;;6.30;99.90;;;;;;5066396;28;20228;-67
2023/03/08 14:52:48;;;;;;;12.73;5.53;;;6.20;99.90;;;;;;5063459;28;20222;-67
2023/03/08 14:55:38;;;;;;;15.60;5.80;;;6.30;99.90;;;;;;5045675;28;20239;-66
2023/03/08 14:58:30;;;;;;;9.17;5.50;;;6.30;99.90;;;;;;5063386;28;20235;-65
2023/03/08 15:01:24;;;;;;;15.33;5.77;;;6.30;99.90;;;;;;5052259;28;20246;-66